sensor_id;sensor_type;location;lat;lon;timestamp;P1;durP1;ratioP1;P2;durP2;ratioP2
29184;SDS011;16233;47.964;-3.842;2022-08-03T00:01:03;3.80;;;2.00;;
29184;SDS011;16233;47.964;-3.842;2022-08-03T00:03:04;2.83;;;1.10;;
29184;SDS011;16233;47.964;-3.842;2022-08-03T00:05:05;1.17;;;1.10;;
29184;SDS011;16233;47.964;-3.842;2022-08-03T00:07:06;5.93;;;1.23;;
29184;SDS011;16233;47.964;-3.842;2022-08-03T00:09:08;1.30;;;1.13;;
29184;SDS011;16233;47.964;-3.842;2022-08-03T00:11:09;1.23;;;1.13;;
29184;SDS011;16233;47.964;-3.842;2022-08-03T00:13:10;2.67;;;1.00;;
29184;SDS011;16233;47.964;-3.842;2022-08-03T00:15:13;3.03;;;1.40;;
29184;SDS011;16233;47.964;-3.842;2022-08-03T00:17:14;2.95;;;1.15;;
29184;SDS011;16233;47.964;-3.842;2022-08-03T00:19:15;3.45;;;1.13;;
29184;SDS011;16233;47.964;-3.842;2022-08-03T00:21:16;1.30;;;1.30;;
29184;SDS011;16233;47.964;-3.842;2022-08-03T00:23:17;2.78;;;1.30;;
29184;SDS011;16233;47.964;-3.842;2022-08-03T00:25:18;2.80;;;1.30;;
29184;SDS011;16233;47.964;-3.842;2022-08-03T00:27:19;3.33;;;1.25;;
29184;SDS011;16233;47.964;-3.842;2022-08-03T00:29:20;1.40;;;1.30;;
29184;SDS011;16233;47.964;-3.842;2022-08-03T00:31:23;1.50;;;1.30;;
29184;SDS011;16233;47.964;-3.842;2022-08-03T00:33:24;1.30;;;1.20;;
29184;SDS011;16233;47.964;-3.842;2022-08-03T00:35:25;4.20;;;1.00;;
29184;SDS011;16233;47.964;-3.842;2022-08-03T00:37:26;3.63;;;1.38;;
29184;SDS011;16233;47.964;-3.842;2022-08-03T00:39:27;1.58;;;1.35;;
29184;SDS011;16233;47.964;-3.842;2022-08-03T00:41:28;1.15;;;1.00;;
29184;SDS011;16233;47.964;-3.842;2022-08-03T00:43:29;1.98;;;1.10;;
29184;SDS011;16233;47.964;-3.842;2022-08-03T00:45:30;2.58;;;1.23;;
29184;SDS011;16233;47.964;-3.842;2022-08-03T00:47:34;2.78;;;1.20;;
29184;SDS011;16233;47.964;-3.842;2022-08-03T00:49:35;2.25;;;1.38;;
29184;SDS011;16233;47.964;-3.842;2022-08-03T00:51:36;4.72;;;1.48;;
29184;SDS011;16233;47.964;-3.842;2022-08-03T00:53:38;5.32;;;1.20;;
29184;SDS011;16233;47.964;-3.842;2022-08-03T00:55:39;7.30;;;1.48;;
29184;SDS011;16233;47.964;-3.842;2022-08-03T00:57:41;2.13;;;1.58;;
29184;SDS011;16233;47.964;-3.842;2022-08-03T00:59:42;1.23;;;1.20;;
29184;SDS011;16233;47.964;-3.842;2022-08-03T01:01:43;3.40;;;1.65;;
29184;SDS011;16233;47.964;-3.842;2022-08-03T01:03:46;4.53;;;2.17;;
29184;SDS011;16233;47.964;-3.842;2022-08-03T01:05:50;5.45;;;1.70;;
29184;SDS011;16233;47.964;-3.842;2022-08-03T01:07:57;1.48;;;1.38;;
29184;SDS011;16233;47.964;-3.842;2022-08-03T01:10:04;3.20;;;1.58;;
29184;SDS011;16233;47.964;-3.842;2022-08-03T01:12:12;3.38;;;1.85;;
29184;SDS011;16233;47.964;-3.842;2022-08-03T01:14:19;2.40;;;1.35;;
29184;SDS011;16233;47.964;-3.842;2022-08-03T01:16:26;2.53;;;1.50;;
29184;SDS011;16233;47.964;-3.842;2022-08-03T01:18:31;4.55;;;1.63;;
29184;SDS011;16233;47.964;-3.842;2022-08-03T01:20:39;4.60;;;2.33;;
29184;SDS011;16233;47.964;-3.842;2022-08-03T01:25:22;4.78;;;2.15;;
29184;SDS011;16233;47.964;-3.842;2022-08-03T01:27:36;1.52;;;1.40;;
29184;SDS011;16233;47.964;-3.842;2022-08-03T01:29:59;3.00;;;1.00;;
29184;SDS011;16233;47.964;-3.842;2022-08-03T01:32:04;3.20;;;1.20;;
29184;SDS011;16233;47.964;-3.842;2022-08-03T01:34:12;3.72;;;1.30;;
29184;SDS011;16233;47.964;-3.842;2022-08-03T01:36:16;1.30;;;1.20;;
29184;SDS011;16233;47.964;-3.842;2022-08-03T01:38:23;4.28;;;1.85;;
29184;SDS011;16233;47.964;-3.842;2022-08-03T01:40:26;3.63;;;1.60;;
29184;SDS011;16233;47.964;-3.842;2022-08-03T01:42:31;3.58;;;2.20;;
29184;SDS011;16233;47.964;-3.842;2022-08-03T01:44:37;5.57;;;2.17;;
29184;SDS011;16233;47.964;-3.842;2022-08-03T01:46:43;1.30;;;1.00;;
29184;SDS011;16233;47.964;-3.842;2022-08-03T01:48:46;2.17;;;1.42;;
29184;SDS011;16233;47.964;-3.842;2022-08-03T01:50:48;6.25;;;1.10;;
29184;SDS011;16233;47.964;-3.842;2022-08-03T01:52:50;4.38;;;1.83;;
29184;SDS011;16233;47.964;-3.842;2022-08-03T01:54:52;3.85;;;2.13;;
29184;SDS011;16233;47.964;-3.842;2022-08-03T01:56:53;7.45;;;1.98;;
29184;SDS011;16233;47.964;-3.842;2022-08-03T01:58:57;5.75;;;2.10;;
29184;SDS011;16233;47.964;-3.842;2022-08-03T02:01:01;18.33;;;2.63;;
29184;SDS011;16233;47.964;-3.842;2022-08-03T02:03:05;8.02;;;2.20;;
29184;SDS011;16233;47.964;-3.842;2022-08-03T02:05:07;30.88;;;2.67;;
29184;SDS011;16233;47.964;-3.842;2022-08-03T02:07:10;16.10;;;2.40;;
29184;SDS011;16233;47.964;-3.842;2022-08-03T02:09:14;31.80;;;2.80;;
29184;SDS011;16233;47.964;-3.842;2022-08-03T02:11:16;85.07;;;3.67;;
29184;SDS011;16233;47.964;-3.842;2022-08-03T02:13:17;86.00;;;3.17;;
29184;SDS011;16233;47.964;-3.842;2022-08-03T02:15:20;36.70;;;2.50;;
29184;SDS011;16233;47.964;-3.842;2022-08-03T02:17:22;38.30;;;2.78;;
29184;SDS011;16233;47.964;-3.842;2022-08-03T02:19:26;27.88;;;2.13;;
29184;SDS011;16233;47.964;-3.842;2022-08-03T02:21:30;26.25;;;2.72;;
29184;SDS011;16233;47.964;-3.842;2022-08-03T02:23:34;23.55;;;2.40;;
29184;SDS011;16233;47.964;-3.842;2022-08-03T02:25:37;15.25;;;1.90;;
29184;SDS011;16233;47.964;-3.842;2022-08-03T02:27:43;13.18;;;1.73;;
29184;SDS011;16233;47.964;-3.842;2022-08-03T02:29:50;4.82;;;2.00;;
29184;SDS011;16233;47.964;-3.842;2022-08-03T02:31:54;2.28;;;1.40;;
29184;SDS011;16233;47.964;-3.842;2022-08-03T02:34:00;1.42;;;1.30;;
29184;SDS011;16233;47.964;-3.842;2022-08-03T02:36:04;8.30;;;1.27;;
29184;SDS011;16233;47.964;-3.842;2022-08-03T02:38:07;3.90;;;1.50;;
29184;SDS011;16233;47.964;-3.842;2022-08-03T02:40:10;2.92;;;2.67;;
29184;SDS011;16233;47.964;-3.842;2022-08-03T02:42:13;2.50;;;1.92;;
29184;SDS011;16233;47.964;-3.842;2022-08-03T02:44:18;1.65;;;1.48;;
29184;SDS011;16233;47.964;-3.842;2022-08-03T02:46:22;1.50;;;1.40;;
29184;SDS011;16233;47.964;-3.842;2022-08-03T02:48:29;1.30;;;1.20;;
29184;SDS011;16233;47.964;-3.842;2022-08-03T02:50:34;3.67;;;1.10;;
29184;SDS011;16233;47.964;-3.842;2022-08-03T02:52:39;55.03;;;2.33;;
29184;SDS011;16233;47.964;-3.842;2022-08-03T02:54:43;1.35;;;1.30;;
29184;SDS011;16233;47.964;-3.842;2022-08-03T02:56:46;1.10;;;1.05;;
29184;SDS011;16233;47.964;-3.842;2022-08-03T02:58:48;2.65;;;1.23;;
29184;SDS011;16233;47.964;-3.842;2022-08-03T03:00:50;4.22;;;1.40;;
29184;SDS011;16233;47.964;-3.842;2022-08-03T03:02:52;1.30;;;1.20;;
29184;SDS011;16233;47.964;-3.842;2022-08-03T03:04:55;1.60;;;1.35;;
29184;SDS011;16233;47.964;-3.842;2022-08-03T03:06:58;2.17;;;1.27;;
29184;SDS011;16233;47.964;-3.842;2022-08-03T03:09:01;1.23;;;1.10;;
29184;SDS011;16233;47.964;-3.842;2022-08-03T03:11:03;0.98;;;0.98;;
29184;SDS011;16233;47.964;-3.842;2022-08-03T03:13:04;1.10;;;1.10;;
29184;SDS011;16233;47.964;-3.842;2022-08-03T03:15:06;9.13;;;1.60;;
29184;SDS011;16233;47.964;-3.842;2022-08-03T03:17:08;6.53;;;1.80;;
29184;SDS011;16233;47.964;-3.842;2022-08-03T03:19:13;1.77;;;1.58;;
29184;SDS011;16233;47.964;-3.842;2022-08-03T03:21:15;17.10;;;1.98;;
29184;SDS011;16233;47.964;-3.842;2022-08-03T03:23:19;25.92;;;2.20;;
29184;SDS011;16233;47.964;-3.842;2022-08-03T03:25:22;1.65;;;1.55;;
29184;SDS011;16233;47.964;-3.842;2022-08-03T03:27:24;4.93;;;1.52;;
29184;SDS011;16233;47.964;-3.842;2022-08-03T03:29:25;8.25;;;1.70;;
29184;SDS011;16233;47.964;-3.842;2022-08-03T03:31:27;1.88;;;1.77;;
29184;SDS011;16233;47.964;-3.842;2022-08-03T03:33:28;1.70;;;1.60;;
29184;SDS011;16233;47.964;-3.842;2022-08-03T03:35:29;2.88;;;1.65;;
29184;SDS011;16233;47.964;-3.842;2022-08-03T03:37:30;1.95;;;1.13;;
29184;SDS011;16233;47.964;-3.842;2022-08-03T03:39:31;2.35;;;2.08;;
29184;SDS011;16233;47.964;-3.842;2022-08-03T03:41:33;1.77;;;1.50;;
29184;SDS011;16233;47.964;-3.842;2022-08-03T03:43:35;2.75;;;1.30;;
29184;SDS011;16233;47.964;-3.842;2022-08-03T03:45:36;9.02;;;1.52;;
29184;SDS011;16233;47.964;-3.842;2022-08-03T03:47:39;3.10;;;1.75;;
29184;SDS011;16233;47.964;-3.842;2022-08-03T03:49:41;3.88;;;1.90;;
29184;SDS011;16233;47.964;-3.842;2022-08-03T03:51:42;7.88;;;1.50;;
29184;SDS011;16233;47.964;-3.842;2022-08-03T03:53:53;6.30;;;1.60;;
29184;SDS011;16233;47.964;-3.842;2022-08-03T03:55:55;5.75;;;1.77;;
29184;SDS011;16233;47.964;-3.842;2022-08-03T03:57:57;8.00;;;2.00;;
29184;SDS011;16233;47.964;-3.842;2022-08-03T03:59:59;1.60;;;1.35;;
29184;SDS011;16233;47.964;-3.842;2022-08-03T04:02:00;2.20;;;1.60;;
29184;SDS011;16233;47.964;-3.842;2022-08-03T04:04:01;7.55;;;1.60;;
29184;SDS011;16233;47.964;-3.842;2022-08-03T04:06:02;3.80;;;2.60;;
29184;SDS011;16233;47.964;-3.842;2022-08-03T04:08:04;8.25;;;2.10;;
29184;SDS011;16233;47.964;-3.842;2022-08-03T04:10:09;6.28;;;1.63;;
29184;SDS011;16233;47.964;-3.842;2022-08-03T04:12:13;10.43;;;1.65;;
29184;SDS011;16233;47.964;-3.842;2022-08-03T04:14:18;44.92;;;2.22;;
29184;SDS011;16233;47.964;-3.842;2022-08-03T04:16:23;41.83;;;2.25;;
29184;SDS011;16233;47.964;-3.842;2022-08-03T04:18:26;32.80;;;2.17;;
29184;SDS011;16233;47.964;-3.842;2022-08-03T04:20:30;28.85;;;2.50;;
29184;SDS011;16233;47.964;-3.842;2022-08-03T04:22:34;21.33;;;1.85;;
29184;SDS011;16233;47.964;-3.842;2022-08-03T04:24:37;23.35;;;1.83;;
29184;SDS011;16233;47.964;-3.842;2022-08-03T04:26:40;98.55;;;3.70;;
29184;SDS011;16233;47.964;-3.842;2022-08-03T04:28:44;45.70;;;2.40;;
29184;SDS011;16233;47.964;-3.842;2022-08-03T04:30:48;57.38;;;3.38;;
29184;SDS011;16233;47.964;-3.842;2022-08-03T04:32:52;54.40;;;2.60;;
29184;SDS011;16233;47.964;-3.842;2022-08-03T04:34:55;40.40;;;2.67;;
29184;SDS011;16233;47.964;-3.842;2022-08-03T04:36:56;24.05;;;1.88;;
29184;SDS011;16233;47.964;-3.842;2022-08-03T04:39:01;35.40;;;2.05;;
29184;SDS011;16233;47.964;-3.842;2022-08-03T04:41:04;17.83;;;2.00;;
29184;SDS011;16233;47.964;-3.842;2022-08-03T04:43:10;20.35;;;1.80;;
29184;SDS011;16233;47.964;-3.842;2022-08-03T04:45:12;18.17;;;1.70;;
29184;SDS011;16233;47.964;-3.842;2022-08-03T04:47:16;44.63;;;3.95;;
29184;SDS011;16233;47.964;-3.842;2022-08-03T04:49:18;27.25;;;2.13;;
29184;SDS011;16233;47.964;-3.842;2022-08-03T04:51:20;47.67;;;2.40;;
29184;SDS011;16233;47.964;-3.842;2022-08-03T04:53:22;27.48;;;2.10;;
29184;SDS011;16233;47.964;-3.842;2022-08-03T04:55:26;19.63;;;1.80;;
29184;SDS011;16233;47.964;-3.842;2022-08-03T04:57:27;21.73;;;1.70;;
29184;SDS011;16233;47.964;-3.842;2022-08-03T04:59:28;24.48;;;2.15;;
29184;SDS011;16233;47.964;-3.842;2022-08-03T05:01:29;30.65;;;2.30;;
29184;SDS011;16233;47.964;-3.842;2022-08-03T05:03:31;36.33;;;2.25;;
29184;SDS011;16233;47.964;-3.842;2022-08-03T05:05:32;25.15;;;2.05;;
29184;SDS011;16233;47.964;-3.842;2022-08-03T05:07:33;15.88;;;1.50;;
29184;SDS011;16233;47.964;-3.842;2022-08-03T05:09:34;20.48;;;1.60;;
29184;SDS011;16233;47.964;-3.842;2022-08-03T05:11:36;12.75;;;1.27;;
29184;SDS011;16233;47.964;-3.842;2022-08-03T05:13:37;25.38;;;1.77;;
29184;SDS011;16233;47.964;-3.842;2022-08-03T05:15:38;25.98;;;1.73;;
29184;SDS011;16233;47.964;-3.842;2022-08-03T05:17:39;11.68;;;1.50;;
29184;SDS011;16233;47.964;-3.842;2022-08-03T05:19:42;41.03;;;2.13;;
29184;SDS011;16233;47.964;-3.842;2022-08-03T05:21:43;21.52;;;1.65;;
29184;SDS011;16233;47.964;-3.842;2022-08-03T05:23:44;27.70;;;1.52;;
29184;SDS011;16233;47.964;-3.842;2022-08-03T05:25:45;9.07;;;1.20;;
29184;SDS011;16233;47.964;-3.842;2022-08-03T05:27:46;10.55;;;1.48;;
29184;SDS011;16233;47.964;-3.842;2022-08-03T05:29:48;13.77;;;1.30;;
29184;SDS011;16233;47.964;-3.842;2022-08-03T05:31:49;30.13;;;1.60;;
29184;SDS011;16233;47.964;-3.842;2022-08-03T05:33:50;10.23;;;1.23;;
29184;SDS011;16233;47.964;-3.842;2022-08-03T05:35:53;21.88;;;1.45;;
29184;SDS011;16233;47.964;-3.842;2022-08-03T05:37:54;30.17;;;1.42;;
29184;SDS011;16233;47.964;-3.842;2022-08-03T05:39:55;9.18;;;1.33;;
29184;SDS011;16233;47.964;-3.842;2022-08-03T05:41:56;22.95;;;1.50;;
29184;SDS011;16233;47.964;-3.842;2022-08-03T05:43:57;9.80;;;1.13;;
29184;SDS011;16233;47.964;-3.842;2022-08-03T05:45:58;6.07;;;1.10;;
29184;SDS011;16233;47.964;-3.842;2022-08-03T05:47:59;11.95;;;1.30;;
29184;SDS011;16233;47.964;-3.842;2022-08-03T05:50:00;16.23;;;1.13;;
29184;SDS011;16233;47.964;-3.842;2022-08-03T05:52:02;7.45;;;0.93;;
29184;SDS011;16233;47.964;-3.842;2022-08-03T05:54:03;28.08;;;1.23;;
29184;SDS011;16233;47.964;-3.842;2022-08-03T05:56:05;5.35;;;1.00;;
29184;SDS011;16233;47.964;-3.842;2022-08-03T05:58:06;3.33;;;0.80;;
29184;SDS011;16233;47.964;-3.842;2022-08-03T06:00:07;13.93;;;1.10;;
29184;SDS011;16233;47.964;-3.842;2022-08-03T06:02:10;4.90;;;0.90;;
29184;SDS011;16233;47.964;-3.842;2022-08-03T06:04:11;9.13;;;0.88;;
29184;SDS011;16233;47.964;-3.842;2022-08-03T06:06:12;5.43;;;1.02;;
29184;SDS011;16233;47.964;-3.842;2022-08-03T06:08:14;6.72;;;1.10;;
29184;SDS011;16233;47.964;-3.842;2022-08-03T06:10:15;8.43;;;1.05;;
29184;SDS011;16233;47.964;-3.842;2022-08-03T06:12:16;4.50;;;0.90;;
29184;SDS011;16233;47.964;-3.842;2022-08-03T06:14:17;14.25;;;1.10;;
29184;SDS011;16233;47.964;-3.842;2022-08-03T06:16:18;14.57;;;1.17;;
29184;SDS011;16233;47.964;-3.842;2022-08-03T06:18:19;30.45;;;1.40;;
29184;SDS011;16233;47.964;-3.842;2022-08-03T06:20:20;26.40;;;1.42;;
29184;SDS011;16233;47.964;-3.842;2022-08-03T06:22:21;27.67;;;1.42;;
29184;SDS011;16233;47.964;-3.842;2022-08-03T06:24:24;26.17;;;1.10;;
29184;SDS011;16233;47.964;-3.842;2022-08-03T06:26:25;55.88;;;1.80;;
29184;SDS011;16233;47.964;-3.842;2022-08-03T06:28:27;40.95;;;1.80;;
29184;SDS011;16233;47.964;-3.842;2022-08-03T06:30:28;29.08;;;1.60;;
29184;SDS011;16233;47.964;-3.842;2022-08-03T06:32:29;23.73;;;1.80;;
29184;SDS011;16233;47.964;-3.842;2022-08-03T06:34:30;24.63;;;1.23;;
29184;SDS011;16233;47.964;-3.842;2022-08-03T06:36:31;26.75;;;1.23;;
29184;SDS011;16233;47.964;-3.842;2022-08-03T06:38:32;11.07;;;1.30;;
29184;SDS011;16233;47.964;-3.842;2022-08-03T06:40:35;28.00;;;1.20;;
29184;SDS011;16233;47.964;-3.842;2022-08-03T06:42:36;16.67;;;1.20;;
29184;SDS011;16233;47.964;-3.842;2022-08-03T06:44:37;23.00;;;1.00;;
29184;SDS011;16233;47.964;-3.842;2022-08-03T06:46:38;73.18;;;2.25;;
29184;SDS011;16233;47.964;-3.842;2022-08-03T06:48:39;9.82;;;0.90;;
29184;SDS011;16233;47.964;-3.842;2022-08-03T06:50:40;8.05;;;1.02;;
29184;SDS011;16233;47.964;-3.842;2022-08-03T06:52:41;12.85;;;0.95;;
29184;SDS011;16233;47.964;-3.842;2022-08-03T06:54:42;39.47;;;1.67;;
29184;SDS011;16233;47.964;-3.842;2022-08-03T06:56:45;35.58;;;1.48;;
29184;SDS011;16233;47.964;-3.842;2022-08-03T06:58:46;1.13;;;0.60;;
29184;SDS011;16233;47.964;-3.842;2022-08-03T07:00:47;7.97;;;0.90;;
29184;SDS011;16233;47.964;-3.842;2022-08-03T07:02:48;3.25;;;0.80;;
29184;SDS011;16233;47.964;-3.842;2022-08-03T07:04:49;3.13;;;0.77;;
29184;SDS011;16233;47.964;-3.842;2022-08-03T07:06:50;0.85;;;0.75;;
29184;SDS011;16233;47.964;-3.842;2022-08-03T07:08:51;3.88;;;0.80;;
29184;SDS011;16233;47.964;-3.842;2022-08-03T07:10:52;0.70;;;0.70;;
29184;SDS011;16233;47.964;-3.842;2022-08-03T07:12:54;1.33;;;1.00;;
29184;SDS011;16233;47.964;-3.842;2022-08-03T07:14:55;1.52;;;1.40;;
29184;SDS011;16233;47.964;-3.842;2022-08-03T07:16:57;0.80;;;0.80;;
29184;SDS011;16233;47.964;-3.842;2022-08-03T07:18:58;2.20;;;0.70;;
29184;SDS011;16233;47.964;-3.842;2022-08-03T07:20:59;1.40;;;0.63;;
29184;SDS011;16233;47.964;-3.842;2022-08-03T07:23:00;5.00;;;0.73;;
29184;SDS011;16233;47.964;-3.842;2022-08-03T07:25:01;2.28;;;0.90;;
29184;SDS011;16233;47.964;-3.842;2022-08-03T07:27:03;3.40;;;0.80;;
29184;SDS011;16233;47.964;-3.842;2022-08-03T07:29:05;10.30;;;1.00;;
29184;SDS011;16233;47.964;-3.842;2022-08-03T07:31:06;0.77;;;0.77;;
29184;SDS011;16233;47.964;-3.842;2022-08-03T07:33:07;9.13;;;0.77;;
29184;SDS011;16233;47.964;-3.842;2022-08-03T07:35:08;3.05;;;1.00;;
29184;SDS011;16233;47.964;-3.842;2022-08-03T07:37:10;1.90;;;0.90;;
29184;SDS011;16233;47.964;-3.842;2022-08-03T07:39:11;0.80;;;0.80;;
29184;SDS011;16233;47.964;-3.842;2022-08-03T07:41:12;1.08;;;0.85;;
29184;SDS011;16233;47.964;-3.842;2022-08-03T07:43:13;7.88;;;0.85;;
29184;SDS011;16233;47.964;-3.842;2022-08-03T07:45:16;8.20;;;0.70;;
29184;SDS011;16233;47.964;-3.842;2022-08-03T07:47:17;8.75;;;1.02;;
29184;SDS011;16233;47.964;-3.842;2022-08-03T07:49:19;0.80;;;0.80;;
29184;SDS011;16233;47.964;-3.842;2022-08-03T07:51:20;7.32;;;0.75;;
29184;SDS011;16233;47.964;-3.842;2022-08-03T07:53:21;0.70;;;0.70;;
29184;SDS011;16233;47.964;-3.842;2022-08-03T07:55:23;0.75;;;0.75;;
29184;SDS011;16233;47.964;-3.842;2022-08-03T07:57:25;1.40;;;1.35;;
29184;SDS011;16233;47.964;-3.842;2022-08-03T07:59:26;1.77;;;0.75;;
29184;SDS011;16233;47.964;-3.842;2022-08-03T08:01:28;2.30;;;1.00;;
29184;SDS011;16233;47.964;-3.842;2022-08-03T08:03:30;0.70;;;0.70;;
29184;SDS011;16233;47.964;-3.842;2022-08-03T08:05:31;1.98;;;0.90;;
29184;SDS011;16233;47.964;-3.842;2022-08-03T08:07:32;6.50;;;1.15;;
29184;SDS011;16233;47.964;-3.842;2022-08-03T08:09:33;0.63;;;0.63;;
29184;SDS011;16233;47.964;-3.842;2022-08-03T08:11:34;0.82;;;0.82;;
29184;SDS011;16233;47.964;-3.842;2022-08-03T08:13:35;1.17;;;0.93;;
29184;SDS011;16233;47.964;-3.842;2022-08-03T08:15:36;0.70;;;0.70;;
29184;SDS011;16233;47.964;-3.842;2022-08-03T08:17:42;1.17;;;0.90;;
29184;SDS011;16233;47.964;-3.842;2022-08-03T08:19:44;0.90;;;0.90;;
29184;SDS011;16233;47.964;-3.842;2022-08-03T08:21:45;1.55;;;0.80;;
29184;SDS011;16233;47.964;-3.842;2022-08-03T08:23:46;4.68;;;1.10;;
29184;SDS011;16233;47.964;-3.842;2022-08-03T08:25:47;1.42;;;1.40;;
29184;SDS011;16233;47.964;-3.842;2022-08-03T08:27:49;1.02;;;1.02;;
29184;SDS011;16233;47.964;-3.842;2022-08-03T08:29:50;1.00;;;0.98;;
29184;SDS011;16233;47.964;-3.842;2022-08-03T08:31:51;1.10;;;1.10;;
29184;SDS011;16233;47.964;-3.842;2022-08-03T08:33:53;0.80;;;0.80;;
29184;SDS011;16233;47.964;-3.842;2022-08-03T08:35:54;2.28;;;0.90;;
29184;SDS011;16233;47.964;-3.842;2022-08-03T08:37:55;0.80;;;0.80;;
29184;SDS011;16233;47.964;-3.842;2022-08-03T08:39:59;2.80;;;0.90;;
29184;SDS011;16233;47.964;-3.842;2022-08-03T08:42:00;1.00;;;1.00;;
29184;SDS011;16233;47.964;-3.842;2022-08-03T08:44:01;2.33;;;1.17;;
29184;SDS011;16233;47.964;-3.842;2022-08-03T08:46:02;0.75;;;0.75;;
29184;SDS011;16233;47.964;-3.842;2022-08-03T08:48:05;3.50;;;1.10;;
29184;SDS011;16233;47.964;-3.842;2022-08-03T08:50:10;1.45;;;1.20;;
29184;SDS011;16233;47.964;-3.842;2022-08-03T08:52:11;1.42;;;1.02;;
29184;SDS011;16233;47.964;-3.842;2022-08-03T08:54:13;1.80;;;1.20;;
29184;SDS011;16233;47.964;-3.842;2022-08-03T08:56:17;1.20;;;1.10;;
29184;SDS011;16233;47.964;-3.842;2022-08-03T08:58:21;3.58;;;1.13;;
29184;SDS011;16233;47.964;-3.842;2022-08-03T09:00:23;2.30;;;1.45;;
29184;SDS011;16233;47.964;-3.842;2022-08-03T09:02:24;1.52;;;1.10;;
29184;SDS011;16233;47.964;-3.842;2022-08-03T09:04:28;2.33;;;1.30;;
29184;SDS011;16233;47.964;-3.842;2022-08-03T09:06:31;4.70;;;1.30;;
29184;SDS011;16233;47.964;-3.842;2022-08-03T09:08:32;3.25;;;1.08;;
29184;SDS011;16233;47.964;-3.842;2022-08-03T09:10:33;3.60;;;1.00;;
29184;SDS011;16233;47.964;-3.842;2022-08-03T09:12:38;4.13;;;1.10;;
29184;SDS011;16233;47.964;-3.842;2022-08-03T09:14:41;1.13;;;0.80;;
29184;SDS011;16233;47.964;-3.842;2022-08-03T09:16:54;0.80;;;0.80;;
29184;SDS011;16233;47.964;-3.842;2022-08-03T09:19:00;3.05;;;1.30;;
29184;SDS011;16233;47.964;-3.842;2022-08-03T09:21:13;1.35;;;1.10;;
29184;SDS011;16233;47.964;-3.842;2022-08-03T09:23:16;1.23;;;0.95;;
29184;SDS011;16233;47.964;-3.842;2022-08-03T09:25:18;1.45;;;1.15;;
29184;SDS011;16233;47.964;-3.842;2022-08-03T09:27:25;3.03;;;1.00;;
29184;SDS011;16233;47.964;-3.842;2022-08-03T09:29:26;1.05;;;0.82;;
29184;SDS011;16233;47.964;-3.842;2022-08-03T09:31:32;1.88;;;1.15;;
29184;SDS011;16233;47.964;-3.842;2022-08-03T09:33:37;1.15;;;1.10;;
29184;SDS011;16233;47.964;-3.842;2022-08-03T09:35:47;2.40;;;0.90;;
29184;SDS011;16233;47.964;-3.842;2022-08-03T09:37:50;2.45;;;1.00;;
29184;SDS011;16233;47.964;-3.842;2022-08-03T09:40:10;1.30;;;0.80;;
29184;SDS011;16233;47.964;-3.842;2022-08-03T09:42:36;8.48;;;1.02;;
29184;SDS011;16233;47.964;-3.842;2022-08-03T09:44:54;1.55;;;1.02;;
29184;SDS011;16233;47.964;-3.842;2022-08-03T09:46:55;3.00;;;1.15;;
29184;SDS011;16233;47.964;-3.842;2022-08-03T09:49:09;5.95;;;1.58;;
29184;SDS011;16233;47.964;-3.842;2022-08-03T09:51:11;1.70;;;1.10;;
29184;SDS011;16233;47.964;-3.842;2022-08-03T09:53:12;2.22;;;1.08;;
29184;SDS011;16233;47.964;-3.842;2022-08-03T09:55:15;1.27;;;0.90;;
29184;SDS011;16233;47.964;-3.842;2022-08-03T09:57:20;1.55;;;0.95;;
29184;SDS011;16233;47.964;-3.842;2022-08-03T09:59:22;0.85;;;0.85;;
29184;SDS011;16233;47.964;-3.842;2022-08-03T10:01:30;1.75;;;1.10;;
29184;SDS011;16233;47.964;-3.842;2022-08-03T10:03:33;1.13;;;0.90;;
29184;SDS011;16233;47.964;-3.842;2022-08-03T10:05:35;2.05;;;0.95;;
29184;SDS011;16233;47.964;-3.842;2022-08-03T10:07:40;1.38;;;0.70;;
29184;SDS011;16233;47.964;-3.842;2022-08-03T10:09:51;1.80;;;1.10;;
29184;SDS011;16233;47.964;-3.842;2022-08-03T10:11:55;1.20;;;0.80;;
29184;SDS011;16233;47.964;-3.842;2022-08-03T10:14:06;6.50;;;1.05;;
29184;SDS011;16233;47.964;-3.842;2022-08-03T10:16:08;0.95;;;0.90;;
29184;SDS011;16233;47.964;-3.842;2022-08-03T10:18:09;1.60;;;1.00;;
29184;SDS011;16233;47.964;-3.842;2022-08-03T10:20:11;2.22;;;1.20;;
29184;SDS011;16233;47.964;-3.842;2022-08-03T10:22:13;1.48;;;1.08;;
29184;SDS011;16233;47.964;-3.842;2022-08-03T10:24:15;3.72;;;1.30;;
29184;SDS011;16233;47.964;-3.842;2022-08-03T10:26:24;8.00;;;1.05;;
29184;SDS011;16233;47.964;-3.842;2022-08-03T10:28:33;2.08;;;1.00;;
29184;SDS011;16233;47.964;-3.842;2022-08-03T10:30:35;1.13;;;1.00;;
29184;SDS011;16233;47.964;-3.842;2022-08-03T10:32:40;2.38;;;1.38;;
29184;SDS011;16233;47.964;-3.842;2022-08-03T10:34:43;11.38;;;2.00;;
29184;SDS011;16233;47.964;-3.842;2022-08-03T10:36:45;1.10;;;1.00;;
29184;SDS011;16233;47.964;-3.842;2022-08-03T10:38:48;1.02;;;1.00;;
29184;SDS011;16233;47.964;-3.842;2022-08-03T10:40:52;5.93;;;1.17;;
29184;SDS011;16233;47.964;-3.842;2022-08-03T10:42:54;3.22;;;1.27;;
29184;SDS011;16233;47.964;-3.842;2022-08-03T10:45:03;6.97;;;1.20;;
29184;SDS011;16233;47.964;-3.842;2022-08-03T10:47:05;3.35;;;1.45;;
29184;SDS011;16233;47.964;-3.842;2022-08-03T10:49:11;2.40;;;1.10;;
29184;SDS011;16233;47.964;-3.842;2022-08-03T10:51:12;2.08;;;1.40;;
29184;SDS011;16233;47.964;-3.842;2022-08-03T10:53:14;2.47;;;2.00;;
29184;SDS011;16233;47.964;-3.842;2022-08-03T10:55:28;1.52;;;1.42;;
29184;SDS011;16233;47.964;-3.842;2022-08-03T10:59:57;1.80;;;1.33;;
29184;SDS011;16233;47.964;-3.842;2022-08-03T11:02:00;2.00;;;1.25;;
29184;SDS011;16233;47.964;-3.842;2022-08-03T11:04:13;4.00;;;2.30;;
29184;SDS011;16233;47.964;-3.842;2022-08-03T11:06:16;1.55;;;0.98;;
29184;SDS011;16233;47.964;-3.842;2022-08-03T11:08:22;2.92;;;1.27;;
29184;SDS011;16233;47.964;-3.842;2022-08-03T11:10:30;1.25;;;1.20;;
29184;SDS011;16233;47.964;-3.842;2022-08-03T11:12:32;3.30;;;1.20;;
29184;SDS011;16233;47.964;-3.842;2022-08-03T11:14:43;7.43;;;1.20;;
29184;SDS011;16233;47.964;-3.842;2022-08-03T11:16:46;5.25;;;1.00;;
29184;SDS011;16233;47.964;-3.842;2022-08-03T11:18:56;2.53;;;1.33;;
29184;SDS011;16233;47.964;-3.842;2022-08-03T11:20:58;4.30;;;2.15;;
29184;SDS011;16233;47.964;-3.842;2022-08-03T11:22:59;1.00;;;0.90;;
29184;SDS011;16233;47.964;-3.842;2022-08-03T11:25:00;1.58;;;1.02;;
29184;SDS011;16233;47.964;-3.842;2022-08-03T11:27:17;1.80;;;1.42;;
29184;SDS011;16233;47.964;-3.842;2022-08-03T11:29:28;1.10;;;1.10;;
29184;SDS011;16233;47.964;-3.842;2022-08-03T11:34:06;4.10;;;1.55;;
29184;SDS011;16233;47.964;-3.842;2022-08-03T11:36:07;2.78;;;1.30;;
29184;SDS011;16233;47.964;-3.842;2022-08-03T11:38:09;3.78;;;0.90;;
29184;SDS011;16233;47.964;-3.842;2022-08-03T11:40:16;1.27;;;1.10;;
29184;SDS011;16233;47.964;-3.842;2022-08-03T11:42:41;5.50;;;2.58;;
29184;SDS011;16233;47.964;-3.842;2022-08-03T11:44:43;3.15;;;1.00;;
29184;SDS011;16233;47.964;-3.842;2022-08-03T11:46:47;2.60;;;1.08;;
29184;SDS011;16233;47.964;-3.842;2022-08-03T11:48:48;1.85;;;1.15;;
29184;SDS011;16233;47.964;-3.842;2022-08-03T11:50:51;5.25;;;1.13;;
29184;SDS011;16233;47.964;-3.842;2022-08-03T11:52:52;4.03;;;1.33;;
29184;SDS011;16233;47.964;-3.842;2022-08-03T11:54:54;1.30;;;0.73;;
29184;SDS011;16233;47.964;-3.842;2022-08-03T11:56:55;3.03;;;1.13;;
29184;SDS011;16233;47.964;-3.842;2022-08-03T11:58:56;2.72;;;1.50;;
29184;SDS011;16233;47.964;-3.842;2022-08-03T12:01:02;2.85;;;1.42;;
29184;SDS011;16233;47.964;-3.842;2022-08-03T12:03:05;2.67;;;1.13;;
29184;SDS011;16233;47.964;-3.842;2022-08-03T12:05:07;11.77;;;1.17;;
29184;SDS011;16233;47.964;-3.842;2022-08-03T12:07:10;4.72;;;1.13;;
29184;SDS011;16233;47.964;-3.842;2022-08-03T12:09:14;5.38;;;1.23;;
29184;SDS011;16233;47.964;-3.842;2022-08-03T12:11:16;4.35;;;1.33;;
29184;SDS011;16233;47.964;-3.842;2022-08-03T12:13:17;3.95;;;1.40;;
29184;SDS011;16233;47.964;-3.842;2022-08-03T12:15:23;3.10;;;1.60;;